createdAt,value
2018-02-14T00:02:01.710Z,93791.00
2018-02-14T00:04:29.045Z,93794.66
2018-02-14T00:06:56.430Z,93801.19
2018-02-14T00:09:23.784Z,93792.89
2018-02-14T00:11:51.178Z,93763.49
2018-02-14T00:14:18.561Z,93773.20
2018-02-14T00:16:45.904Z,93784.30
2018-02-14T00:19:13.279Z,93761.28
2018-02-14T00:21:40.670Z,93774.62
2018-02-14T00:24:08.023Z,93784.68
2018-02-14T00:26:35.418Z,93782.48
2018-02-14T00:29:02.773Z,93786.69
2018-02-14T00:31:30.108Z,93780.38
2018-02-14T00:33:57.455Z,93771.75
2018-02-14T00:36:24.869Z,93772.77
2018-02-14T00:38:52.238Z,93779.92
2018-02-14T00:41:19.623Z,93772.66
2018-02-14T00:43:47.018Z,93745.27
2018-02-14T00:46:14.417Z,93767.41
2018-02-14T00:48:41.807Z,93758.83
2018-02-14T00:51:09.142Z,93759.23
2018-02-14T00:53:36.498Z,93732.67
2018-02-14T00:56:03.833Z,93754.95
2018-02-14T00:58:31.189Z,93754.45
2018-02-14T01:00:58.531Z,93745.56
2018-02-14T01:03:25.915Z,93758.11
2018-02-14T01:05:53.294Z,93757.36
2018-02-14T01:08:20.629Z,93758.89
2018-02-14T01:10:47.978Z,93726.36
2018-02-14T01:13:15.354Z,93747.58
2018-02-14T01:15:42.740Z,93748.80
2018-02-14T01:18:10.138Z,93757.08
2018-02-14T01:20:37.537Z,93734.44
2018-02-14T01:23:04.889Z,93718.97
2018-02-14T01:25:32.336Z,93717.11
2018-02-14T01:27:59.694Z,93737.53
2018-02-14T01:30:27.062Z,93744.53
2018-02-14T01:32:54.402Z,93742.08
2018-02-14T01:35:21.741Z,93747.83
2018-02-14T01:37:49.110Z,93746.13
2018-02-14T01:40:16.476Z,93760.25
2018-02-14T01:42:43.941Z,93741.59
2018-02-14T01:45:11.294Z,93716.92
2018-02-14T01:47:38.710Z,93709.75
2018-02-14T01:50:06.085Z,93718.92
2018-02-14T01:52:33.430Z,93715.13
2018-02-14T01:55:00.806Z,93709.79
2018-02-14T01:57:28.994Z,93701.55
2018-02-14T01:59:56.358Z,93721.63
2018-02-14T02:02:23.694Z,93695.81
2018-02-14T02:04:51.078Z,93711.09
2018-02-14T02:07:18.427Z,93708.77
2018-02-14T02:09:45.757Z,93712.75
2018-02-14T02:12:13.114Z,93708.86
2018-02-14T02:14:40.474Z,93700.25
2018-02-14T02:17:07.863Z,93703.42
2018-02-14T02:19:35.195Z,93689.44
2018-02-14T02:22:02.533Z,93705.84
2018-02-14T02:24:29.886Z,93702.82
2018-02-14T02:26:57.228Z,93674.66
2018-02-14T02:29:24.614Z,93711.23
2018-02-14T02:31:51.970Z,93695.36
2018-02-14T02:34:19.320Z,93701.98
2018-02-14T02:36:46.666Z,93682.22
2018-02-14T02:39:14.090Z,93716.14
2018-02-14T02:41:41.435Z,93702.28
2018-02-14T02:44:08.836Z,93715.25
2018-02-14T02:46:36.232Z,93706.89
2018-02-14T02:49:03.570Z,93676.20
2018-02-14T02:51:30.980Z,93715.38
2018-02-14T02:53:58.325Z,93704.87
2018-02-14T02:56:25.701Z,93683.23
2018-02-14T02:58:53.050Z,93708.95
2018-02-14T03:01:20.413Z,93693.13
2018-02-14T03:03:47.789Z,93696.64
2018-02-14T03:06:15.126Z,93707.56
2018-02-14T03:08:42.453Z,93702.58
2018-02-14T03:11:09.826Z,93707.27
2018-02-14T03:13:37.178Z,93717.95
2018-02-14T03:16:04.522Z,93683.88
2018-02-14T03:18:31.859Z,93709.91
2018-02-14T03:20:59.194Z,93714.67
2018-02-14T03:23:26.614Z,93707.50
2018-02-14T03:25:53.943Z,93690.91
2018-02-14T03:28:21.287Z,93701.30
2018-02-14T03:30:48.621Z,93706.13
2018-02-14T03:33:15.994Z,93711.54
2018-02-14T03:35:43.341Z,93698.89
2018-02-14T03:38:10.682Z,93712.06
2018-02-14T03:40:38.017Z,93700.88
2018-02-14T03:43:05.391Z,93705.19
2018-02-14T03:45:32.781Z,93691.85
2018-02-14T03:48:00.158Z,93703.56
2018-02-14T03:50:27.538Z,93706.81
2018-02-14T03:52:54.878Z,93701.53
2018-02-14T03:55:22.472Z,93686.64
2018-02-14T03:57:49.908Z,93682.64
2018-02-14T04:00:17.383Z,93687.52
2018-02-14T04:02:44.728Z,93689.03
2018-02-14T04:05:12.098Z,93669.49
2018-02-14T04:07:39.479Z,93691.33
2018-02-14T04:10:06.886Z,93682.27
2018-02-14T04:12:34.256Z,93697.59
2018-02-14T04:15:01.602Z,93694.61
2018-02-14T04:17:29.050Z,93690.84
2018-02-14T04:19:56.442Z,93675.80
2018-02-14T04:22:23.838Z,93694.99
2018-02-14T04:24:51.183Z,93687.92
2018-02-14T04:27:18.564Z,93690.50
2018-02-14T04:29:45.945Z,93693.48
2018-02-14T04:32:13.286Z,93691.22
2018-02-14T04:34:40.685Z,93716.49
2018-02-14T04:37:08.053Z,93701.41
2018-02-14T04:39:35.481Z,93699.61
2018-02-14T04:42:02.847Z,93705.98
2018-02-14T04:44:30.213Z,93708.02
2018-02-14T04:46:57.769Z,93703.91
2018-02-14T04:49:25.110Z,93688.59
2018-02-14T04:51:52.453Z,93692.87
2018-02-14T04:54:19.846Z,93691.51
2018-02-14T04:56:47.246Z,93693.95
2018-02-14T04:59:14.578Z,93681.69
2018-02-14T05:01:41.958Z,93695.88
2018-02-14T05:04:09.353Z,93701.84
2018-02-14T05:06:36.739Z,93708.88
2018-02-14T05:09:04.118Z,93709.53
2018-02-14T05:11:31.461Z,93701.59
2018-02-14T05:13:58.848Z,93715.36
2018-02-14T05:16:26.203Z,93704.59
2018-02-14T05:18:53.578Z,93716.06
2018-02-14T05:21:20.929Z,93711.09
2018-02-14T05:23:48.262Z,93718.83
2018-02-14T05:26:15.608Z,93719.00
2018-02-14T05:28:42.955Z,93682.27
2018-02-14T05:31:10.306Z,93700.78
2018-02-14T05:33:37.650Z,93722.97
2018-02-14T05:36:05.033Z,93717.33
2018-02-14T05:38:32.468Z,93726.77
2018-02-14T05:40:59.807Z,93727.91
2018-02-14T05:43:27.146Z,93721.41
2018-02-14T05:45:54.546Z,93747.92
2018-02-14T05:48:21.890Z,93739.85
2018-02-14T05:50:49.270Z,93745.85
2018-02-14T05:53:16.689Z,93760.89
2018-02-14T05:55:44.099Z,93765.22
2018-02-14T05:58:11.450Z,93767.19
2018-02-14T06:00:38.888Z,93777.08
2018-02-14T06:03:06.264Z,93783.08
2018-02-14T06:05:33.629Z,93787.78
2018-02-14T06:08:01.030Z,93762.83
2018-02-14T06:10:28.380Z,93804.77
2018-02-14T06:12:55.733Z,93805.36
2018-02-14T06:15:23.129Z,93798.20
2018-02-14T06:17:50.542Z,93818.61
2018-02-14T06:20:17.902Z,93803.52
2018-02-14T06:22:45.240Z,93837.70
2018-02-14T06:25:12.610Z,93808.09
2018-02-14T06:27:39.986Z,93830.45
2018-02-14T06:30:10.712Z,93840.19
2018-02-14T06:32:38.134Z,93837.53
2018-02-14T06:35:05.601Z,93822.98
2018-02-14T06:37:33.053Z,93848.86
2018-02-14T06:40:00.483Z,93858.86
2018-02-14T06:42:27.925Z,93863.89
2018-02-14T06:44:55.525Z,93884.50
2018-02-14T06:47:23.055Z,93894.42
2018-02-14T06:49:50.466Z,93901.11
2018-02-14T06:52:18.076Z,93887.53
2018-02-14T06:54:45.509Z,93872.09
2018-02-14T06:57:12.947Z,93880.86
2018-02-14T06:59:40.366Z,93899.78
2018-02-14T07:02:07.830Z,93885.98
2018-02-14T07:04:35.240Z,93899.08
2018-02-14T07:07:02.800Z,93881.45
2018-02-14T07:09:30.917Z,93887.84
2018-02-14T07:12:00.524Z,93900.53
2018-02-14T07:14:29.681Z,93917.79
2018-02-14T07:16:59.703Z,93936.70
2018-02-14T07:19:28.654Z,93893.69
2018-02-14T07:21:57.434Z,93903.84
2018-02-14T07:24:25.284Z,93894.66
2018-02-14T07:26:52.886Z,93855.89
2018-02-14T07:29:20.858Z,93870.77
2018-02-14T07:31:49.604Z,93937.36
2018-02-14T07:34:18.272Z,93940.27
2018-02-14T07:36:47.243Z,93907.61
2018-02-14T07:39:14.862Z,93937.48
2018-02-14T07:41:43.448Z,93945.67
2018-02-14T07:44:11.413Z,93885.56
2018-02-14T07:46:41.295Z,93922.51
2018-02-14T07:49:08.847Z,93958.72
2018-02-14T07:51:36.415Z,93931.25
2018-02-14T07:54:07.243Z,93913.55
2018-02-14T07:56:34.872Z,93976.53
2018-02-14T07:59:02.542Z,93962.44
2018-02-14T08:01:30.163Z,93963.39
2018-02-14T08:03:57.599Z,93983.27
2018-02-14T08:06:25.023Z,93997.43
2018-02-14T08:08:53.213Z,93951.59
2018-02-14T08:11:20.583Z,93912.72
2018-02-14T08:13:47.975Z,93933.16
2018-02-14T08:16:15.407Z,93995.06
2018-02-14T08:18:42.833Z,93990.93
2018-02-14T08:21:10.323Z,94006.69
2018-02-14T08:23:37.972Z,93896.16
2018-02-14T08:26:05.423Z,93969.20
2018-02-14T08:28:33.067Z,93988.05
2018-02-14T08:31:00.525Z,93991.73
2018-02-14T08:33:27.911Z,93939.02
2018-02-14T08:35:55.354Z,93980.62
2018-02-14T08:38:22.804Z,94014.92
2018-02-14T08:40:50.311Z,94020.48
2018-02-14T08:43:17.956Z,93932.06
2018-02-14T08:45:45.412Z,94002.60
2018-02-14T08:48:13.176Z,94042.50
2018-02-14T08:50:41.440Z,93969.00
2018-02-14T08:53:08.887Z,94050.14
2018-02-14T08:55:36.406Z,94022.84
2018-02-14T08:58:03.973Z,94009.35
2018-02-14T09:00:31.684Z,94029.58
2018-02-14T09:02:59.130Z,94029.59
2018-02-14T09:05:26.536Z,94035.17
2018-02-14T09:07:54.364Z,94028.56
2018-02-14T09:10:21.761Z,94038.98
2018-02-14T09:12:49.200Z,94049.73
2018-02-14T09:15:16.624Z,94024.89
2018-02-14T09:17:44.111Z,94055.07
2018-02-14T09:20:11.570Z,94059.41
2018-02-14T09:22:38.970Z,94063.20
2018-02-14T09:25:06.452Z,94063.98
2018-02-14T09:27:33.912Z,94038.98
2018-02-14T09:30:02.873Z,94061.28
2018-02-14T09:32:30.346Z,94095.32
2018-02-14T09:34:57.743Z,94058.88
2018-02-14T09:37:25.249Z,94067.50
2018-02-14T09:39:52.696Z,94045.17
2018-02-14T09:42:20.150Z,94048.63
2018-02-14T09:44:47.681Z,94029.06
2018-02-14T09:47:15.139Z,94105.09
2018-02-14T09:49:42.567Z,94037.25
2018-02-14T09:52:09.953Z,94118.81
2018-02-14T09:54:37.462Z,94116.28
2018-02-14T09:57:04.838Z,94116.06
2018-02-14T09:59:32.301Z,94083.05
2018-02-14T10:01:59.712Z,94107.27
2018-02-14T10:04:27.066Z,94134.57
2018-02-14T10:06:54.504Z,94112.64
2018-02-14T10:09:21.922Z,94113.83
2018-02-14T10:11:49.360Z,94071.23
2018-02-14T10:14:16.798Z,94090.97
2018-02-14T10:16:44.214Z,94139.66
2018-02-14T10:19:11.656Z,94048.88
2018-02-14T10:21:39.478Z,94103.76
2018-02-14T10:24:07.040Z,94145.39
2018-02-14T10:26:34.566Z,94110.08
2018-02-14T10:29:01.979Z,94028.77
2018-02-14T10:31:29.362Z,94106.80
2018-02-14T10:33:56.943Z,94118.95
2018-02-14T10:36:25.188Z,94096.89
2018-02-14T10:38:53.136Z,94099.05
2018-02-14T10:41:22.079Z,94021.89
2018-02-14T10:43:49.630Z,94093.42
2018-02-14T10:46:17.030Z,94101.47
2018-02-14T10:48:44.507Z,94119.95
2018-02-14T10:51:11.887Z,94060.30
2018-02-14T10:53:39.365Z,94087.30
2018-02-14T10:56:07.366Z,94060.73
2018-02-14T10:58:34.883Z,94106.84
2018-02-14T11:01:02.574Z,94148.06
2018-02-14T11:03:30.038Z,94121.81
2018-02-14T11:05:57.423Z,94135.95
2018-02-14T11:08:29.060Z,94122.08
2018-02-14T11:10:56.504Z,94080.34
2018-02-14T11:13:24.356Z,94115.02
2018-02-14T11:15:51.874Z,94142.44
2018-02-14T11:18:19.319Z,94147.55
2018-02-14T11:20:47.505Z,94154.95
2018-02-14T11:23:16.269Z,94114.84
2018-02-14T11:25:43.793Z,94110.50
2018-02-14T11:28:11.159Z,94155.17
2018-02-14T11:30:38.705Z,94133.23
2018-02-14T11:33:06.144Z,94103.00
2018-02-14T11:35:33.591Z,94101.13
2018-02-14T11:38:01.171Z,94114.11
2018-02-14T11:40:28.616Z,94051.52
2018-02-14T11:42:55.990Z,94148.71
2018-02-14T11:45:23.433Z,94128.17
2018-02-14T11:47:50.881Z,94130.06
2018-02-14T11:50:18.251Z,94137.27
2018-02-14T11:52:45.805Z,94147.53
2018-02-14T11:55:13.255Z,94174.76
2018-02-14T11:57:40.700Z,94111.39
2018-02-14T12:00:08.118Z,94146.61
2018-02-14T12:02:35.538Z,94118.36
2018-02-14T12:05:02.970Z,94176.98
2018-02-14T12:07:30.475Z,94130.23
2018-02-14T12:10:01.779Z,94171.44
2018-02-14T12:12:29.364Z,94115.73
2018-02-14T12:14:56.741Z,94134.09
2018-02-14T12:17:24.184Z,94119.13
2018-02-14T12:19:52.551Z,94183.46
2018-02-14T12:22:19.990Z,94184.90
2018-02-14T12:24:47.516Z,94204.58
2018-02-14T12:27:15.017Z,94176.80
2018-02-14T12:29:42.610Z,94193.98
2018-02-14T12:32:10.060Z,94203.91
2018-02-14T12:34:37.464Z,94186.20
2018-02-14T12:37:04.928Z,94155.47
2018-02-14T12:39:32.563Z,94222.70
2018-02-14T12:42:00.108Z,94208.61
2018-02-14T12:44:27.535Z,94210.61
2018-02-14T12:46:55.192Z,94198.82
2018-02-14T12:49:34.132Z,94224.34
2018-02-14T12:52:02.773Z,94218.92
2018-02-14T12:54:30.752Z,94172.77
2018-02-14T12:56:58.175Z,94222.31
2018-02-14T12:59:47.018Z,94150.03
2018-02-14T13:02:29.985Z,94198.76
2018-02-14T13:04:57.938Z,94191.27
2018-02-14T13:07:26.022Z,94203.17
2018-02-14T13:09:53.967Z,94222.23
2018-02-14T13:12:25.630Z,94225.87
2018-02-14T13:14:54.662Z,94204.59
2018-02-14T13:17:24.049Z,94246.78
2018-02-14T13:19:53.042Z,94220.44
2018-02-14T13:22:24.141Z,94253.58
2018-02-14T13:24:52.509Z,94269.28
2018-02-14T13:27:21.504Z,94257.25
2018-02-14T13:29:49.541Z,94254.44
2018-02-14T13:34:52.021Z,94270.95
2018-02-14T13:37:20.060Z,94253.07
2018-02-14T13:39:48.230Z,94259.88
2018-02-14T13:42:17.173Z,94227.67
2018-02-14T13:44:45.404Z,94294.50
2018-02-14T13:47:13.391Z,94223.47
2018-02-14T13:49:43.606Z,94293.55
2018-02-14T13:52:12.625Z,94304.90
2018-02-14T13:54:44.292Z,94281.44
2018-02-14T13:57:13.133Z,94234.73
2018-02-14T13:59:44.091Z,94263.20
2018-02-14T14:02:12.226Z,94242.12
2018-02-14T14:04:41.720Z,94259.75
2018-02-14T14:07:09.693Z,94271.20
2018-02-14T14:09:38.111Z,94320.60
2018-02-14T14:12:05.953Z,94235.02
2018-02-14T14:14:35.813Z,94310.36
2018-02-14T14:17:05.628Z,94299.98
2018-02-14T14:19:33.146Z,94326.38
2018-02-14T14:22:00.973Z,94288.20
2018-02-14T14:24:31.274Z,94311.94
2018-02-14T14:26:58.793Z,94343.03
2018-02-14T14:29:26.624Z,94339.25
2018-02-14T14:31:54.272Z,94273.69
2018-02-14T14:34:21.937Z,94313.89
2018-02-14T14:36:49.573Z,94339.16
2018-02-14T14:39:19.220Z,94348.02
2018-02-14T14:41:47.539Z,94355.81
2018-02-14T14:44:16.790Z,94307.66
2018-02-14T14:46:44.299Z,94340.45
2018-02-14T14:49:12.777Z,94336.20
2018-02-14T14:51:40.387Z,94328.73
2018-02-14T14:54:10.855Z,94377.94
2018-02-14T14:56:38.411Z,94344.62
2018-02-14T14:59:05.832Z,94381.95
2018-02-14T15:01:33.322Z,94396.06
2018-02-14T15:04:01.118Z,94359.13
2018-02-14T15:06:28.557Z,94362.14
2018-02-14T15:08:56.123Z,94364.45
2018-02-14T15:11:23.583Z,94365.33
2018-02-14T15:13:50.978Z,94395.24
2018-02-14T15:16:18.518Z,94330.04
2018-02-14T15:18:45.951Z,94301.69
2018-02-14T15:21:13.329Z,94407.23
2018-02-14T15:23:40.715Z,94385.75
2018-02-14T15:26:08.290Z,94389.89
2018-02-14T15:28:35.672Z,94401.92
2018-02-14T15:31:03.279Z,94404.05
2018-02-14T15:33:30.776Z,94421.05
2018-02-14T15:35:58.225Z,94413.77
2018-02-14T15:38:25.590Z,94429.91
2018-02-14T15:40:53.109Z,94422.69
2018-02-14T15:45:53.909Z,94447.56
2018-02-14T15:48:21.263Z,94470.17
2018-02-14T15:50:48.709Z,94452.70
2018-02-14T15:53:16.437Z,94445.70
2018-02-14T15:55:43.819Z,94429.94
2018-02-14T15:58:11.360Z,94462.50
2018-02-14T16:00:38.715Z,94478.08
2018-02-14T16:03:06.081Z,94459.83
2018-02-14T16:05:33.500Z,94474.92
2018-02-14T16:08:00.862Z,94473.70
2018-02-14T16:10:28.271Z,94464.27
2018-02-14T16:12:55.637Z,94460.00
2018-02-14T16:15:23.053Z,94470.05
2018-02-14T16:17:50.568Z,94450.66
2018-02-14T16:20:17.971Z,94442.35
2018-02-14T16:22:45.367Z,94469.80
2018-02-14T16:25:12.764Z,94484.34
2018-02-14T16:27:40.175Z,94440.30
2018-02-14T16:30:07.575Z,94487.25
2018-02-14T16:32:34.945Z,94365.12
2018-02-14T16:35:02.436Z,94481.28
2018-02-14T16:37:29.846Z,94480.52
2018-02-14T16:39:57.263Z,94502.52
2018-02-14T16:42:24.636Z,94497.36
2018-02-14T16:44:52.028Z,94474.20
2018-02-14T16:47:19.384Z,94482.39
2018-02-14T16:49:46.795Z,94487.19
2018-02-14T16:52:14.179Z,94474.89
2018-02-14T16:54:41.722Z,94500.11
2018-02-14T16:57:09.146Z,94476.80
2018-02-14T16:59:36.508Z,94473.70
2018-02-14T17:02:03.851Z,94492.64
2018-02-14T17:04:31.267Z,94526.05
2018-02-14T17:06:58.633Z,94520.91
2018-02-14T17:09:26.061Z,94530.69
2018-02-14T17:11:53.414Z,94480.10
2018-02-14T17:14:20.832Z,94505.98
2018-02-14T17:16:48.195Z,94501.58
2018-02-14T17:19:15.550Z,94516.79
2018-02-14T17:21:42.944Z,94500.33
2018-02-14T17:24:10.395Z,94511.90
2018-02-14T17:26:37.753Z,94525.02
2018-02-14T17:29:05.147Z,94518.94
2018-02-14T17:31:32.534Z,94523.48
2018-02-14T17:33:59.883Z,94524.65
2018-02-14T17:36:27.330Z,94456.72
2018-02-14T17:38:54.681Z,94529.98
2018-02-14T17:41:22.034Z,94521.95
2018-02-14T17:43:49.460Z,94544.16
2018-02-14T17:46:16.823Z,94512.98
2018-02-14T17:48:44.242Z,94519.19
2018-02-14T17:51:11.615Z,94535.58
2018-02-14T17:53:39.043Z,94513.78
2018-02-14T17:56:06.466Z,94509.30
2018-02-14T17:58:33.897Z,94516.39
2018-02-14T18:01:01.253Z,94519.37
2018-02-14T18:03:28.655Z,94514.44
2018-02-14T18:05:56.052Z,94517.88
2018-02-14T18:08:23.435Z,94517.84
2018-02-14T18:10:50.824Z,94536.43
2018-02-14T18:13:18.182Z,94522.47
2018-02-14T18:15:45.638Z,94518.19
2018-02-14T18:18:13.029Z,94517.62
2018-02-14T18:20:40.468Z,94535.63
2018-02-14T18:23:07.831Z,94535.73
2018-02-14T18:25:35.266Z,94553.94
2018-02-14T18:28:02.622Z,94552.43
2018-02-14T18:30:30.028Z,94562.62
2018-02-14T18:32:57.439Z,94523.45
2018-02-14T18:35:27.670Z,94562.56
2018-02-14T18:37:55.025Z,94579.34
2018-02-14T18:40:22.494Z,94571.06
2018-02-14T18:42:49.914Z,94586.26
2018-02-14T18:45:17.287Z,94573.38
2018-02-14T18:47:44.633Z,94585.97
2018-02-14T18:50:11.988Z,94559.61
2018-02-14T18:52:39.393Z,94588.34
2018-02-14T18:55:06.767Z,94548.91
2018-02-14T18:57:34.127Z,94597.96
2018-02-14T19:00:01.514Z,94577.42
2018-02-14T19:02:28.873Z,94587.35
2018-02-14T19:04:56.274Z,94592.03
2018-02-14T19:07:23.629Z,94593.89
2018-02-14T19:09:50.990Z,94614.38
2018-02-14T19:12:18.361Z,94611.84
2018-02-14T19:14:45.823Z,94593.24
2018-02-14T19:17:13.217Z,94565.63
2018-02-14T19:19:40.592Z,94604.70
2018-02-14T19:22:07.943Z,94614.16
2018-02-14T19:24:35.303Z,94593.95
2018-02-14T19:27:02.673Z,94617.03
2018-02-14T19:29:30.054Z,94628.05
2018-02-14T19:31:57.409Z,94615.15
2018-02-14T19:34:24.814Z,94619.13
2018-02-14T19:36:52.211Z,94638.17
2018-02-14T19:39:19.560Z,94627.86
2018-02-14T19:41:46.919Z,94594.77
2018-02-14T19:44:14.280Z,94627.02
2018-02-14T19:46:41.706Z,94653.39
2018-02-14T19:49:09.187Z,94633.86
2018-02-14T19:51:36.579Z,94639.41
2018-02-14T19:54:03.987Z,94633.22
2018-02-14T19:56:31.392Z,94629.75
2018-02-14T19:58:58.805Z,94616.87
2018-02-14T20:01:26.309Z,94650.00
2018-02-14T20:03:53.678Z,94648.73
2018-02-14T20:06:21.034Z,94651.97
2018-02-14T20:08:48.394Z,94604.36
2018-02-14T20:11:15.805Z,94650.36
2018-02-14T20:13:43.167Z,94646.78
2018-02-14T20:16:10.532Z,94580.52
2018-02-14T20:18:37.949Z,94634.91
2018-02-14T20:21:05.346Z,94606.66
2018-02-14T20:23:32.710Z,94649.53
2018-02-14T20:26:00.099Z,94661.52
2018-02-14T20:28:27.481Z,94632.29
2018-02-14T20:30:54.847Z,94650.65
2018-02-14T20:33:22.292Z,94664.86
2018-02-14T20:35:49.758Z,94650.16
2018-02-14T20:38:17.125Z,94654.33
2018-02-14T20:40:44.579Z,94648.94
2018-02-14T20:43:12.092Z,94638.39
2018-02-14T20:45:39.432Z,94628.64
2018-02-14T20:48:06.808Z,94645.14
2018-02-14T20:50:34.223Z,94642.19
2018-02-14T20:53:01.575Z,94617.04
2018-02-14T20:55:28.965Z,94634.13
2018-02-14T20:57:56.314Z,94652.31
2018-02-14T21:00:23.676Z,94640.70
2018-02-14T21:02:51.056Z,94656.91
2018-02-14T21:05:18.428Z,94637.77
2018-02-14T21:07:45.835Z,94647.94
2018-02-14T21:10:13.197Z,94637.38
2018-02-14T21:12:40.562Z,94636.27
2018-02-14T21:15:07.975Z,94629.11
2018-02-14T21:17:35.520Z,94654.70
2018-02-14T21:20:02.912Z,94643.49
2018-02-14T21:22:30.326Z,94658.84
2018-02-14T21:24:57.688Z,94656.29
2018-02-14T21:27:25.040Z,94661.70
2018-02-14T21:29:52.396Z,94636.67
2018-02-14T21:32:19.852Z,94628.80
2018-02-14T21:34:47.276Z,94643.29
2018-02-14T21:37:14.692Z,94669.65
2018-02-14T21:39:42.114Z,94646.75
2018-02-14T21:42:09.472Z,94656.19
2018-02-14T21:44:36.839Z,94677.66
2018-02-14T21:47:04.193Z,94675.40
2018-02-14T21:49:31.570Z,94676.88
2018-02-14T21:51:58.961Z,94681.23
2018-02-14T21:54:26.298Z,94666.27
2018-02-14T21:56:53.660Z,94682.05
2018-02-14T21:59:21.012Z,94650.67
2018-02-14T22:01:48.362Z,94685.23
2018-02-14T22:04:15.790Z,94692.58
2018-02-14T22:06:43.185Z,94660.63
2018-02-14T22:09:10.545Z,94689.22
2018-02-14T22:11:37.991Z,94678.33
2018-02-14T22:14:05.370Z,94682.52
2018-02-14T22:16:32.727Z,94661.61
2018-02-14T22:19:00.091Z,94692.27
2018-02-14T22:21:27.507Z,94674.23
2018-02-14T22:23:54.875Z,94695.12
2018-02-14T22:26:22.288Z,94692.17
2018-02-14T22:28:49.638Z,94685.23
2018-02-14T22:31:17.067Z,94709.30
2018-02-14T22:33:44.435Z,94701.03
2018-02-14T22:36:11.848Z,94717.27
2018-02-14T22:38:39.229Z,94700.66
2018-02-14T22:41:06.578Z,94674.73
2018-02-14T22:43:33.956Z,94701.25
2018-02-14T22:46:01.352Z,94682.59
2018-02-14T22:48:28.768Z,94677.27
2018-02-14T22:50:56.133Z,94652.68
2018-02-14T22:53:23.564Z,94660.35
2018-02-14T22:55:50.928Z,94673.17
2018-02-14T22:58:18.328Z,94671.81
2018-02-14T23:00:45.673Z,94675.27
2018-02-14T23:03:13.068Z,94660.66
2018-02-14T23:05:40.433Z,94683.53
2018-02-14T23:08:07.829Z,94681.07
2018-02-14T23:10:35.186Z,94658.35
2018-02-14T23:13:02.607Z,94660.45
2018-02-14T23:15:29.970Z,94688.11
2018-02-14T23:17:57.377Z,94684.39
2018-02-14T23:20:24.880Z,94676.45
2018-02-14T23:22:52.239Z,94694.01
2018-02-14T23:25:19.594Z,94708.48
2018-02-14T23:27:46.946Z,94658.31
2018-02-14T23:30:14.425Z,94702.70
2018-02-14T23:32:41.770Z,94694.66
2018-02-14T23:35:09.149Z,94694.84
2018-02-14T23:37:36.570Z,94713.44
2018-02-14T23:40:03.970Z,94690.88
2018-02-14T23:42:31.377Z,94696.16
2018-02-14T23:44:58.783Z,94696.73
2018-02-14T23:47:26.142Z,94708.97
2018-02-14T23:49:53.531Z,94706.39
2018-02-14T23:52:20.936Z,94725.98
2018-02-14T23:54:48.328Z,94710.19
2018-02-14T23:57:15.697Z,94730.45
2018-02-14T23:59:43.047Z,94720.75
